Time;durP1;ratioP1;P1;durP2;ratioP2;P2;SDS_P1;SDS_P2;PMS_P1;PMS_P2;Temp;Humidity;BMP_temperature;BMP_pressure;BME280_temperature;BME280_humidity;BME280_pressure;Samples;Min_cycle;Max_cycle;Signal;HPM_P1;HPM_P2
2021/01/04 00:01:00;;;;;;;32.00;20.85;;;3.10;1.00;;;;;;5104602;28;20034;-91
2021/01/04 00:03:32;;;;;;;28.65;19.73;;;3.40;1.00;;;;;;5109009;28;20500;-91
2021/01/04 00:06:03;;;;;;;32.55;20.77;;;2.90;1.00;;;;;;5113235;28;20023;-91
2021/01/04 00:08:50;;;;;;;36.08;21.33;;;2.90;1.00;;;;;;5115146;28;20054;-91
2021/01/04 00:11:28;;;;;;;31.35;20.63;;;3.10;1.00;;;;;;5114870;28;20028;-90
2021/01/04 00:14:23;;;;;;;30.83;19.85;;;3.40;1.00;;;;;;5103894;28;20023;-91
2021/01/04 00:17:16;;;;;;;28.95;18.75;;;3.00;1.00;;;;;;5113553;28;20111;-90
2021/01/04 00:20:07;;;;;;;32.20;20.48;;;3.20;1.00;;;;;;5094594;28;20035;-91
2021/01/04 00:22:48;;;;;;;30.45;20.15;;;3.10;1.00;;;;;;5094508;28;20025;-91
2021/01/04 00:25:23;;;;;;;30.38;20.27;;;3.30;1.00;;;;;;5094068;28;20034;-91
2021/01/04 00:27:54;;;;;;;30.52;20.38;;;3.00;1.00;;;;;;5094299;28;20046;-90
2021/01/04 00:30:29;;;;;;;28.17;19.08;;;3.00;1.00;;;;;;5094444;28;20070;-90
2021/01/04 00:33:06;;;;;;;30.17;19.70;;;3.00;1.00;;;;;;5097729;28;20036;-90
2021/01/04 00:35:32;;;;;;;33.53;20.58;;;3.30;1.00;;;;;;5094661;28;20028;-91
2021/01/04 00:38:15;;;;;;;32.50;20.70;;;3.50;1.00;;;;;;5093900;28;20028;-90
2021/01/04 00:40:53;;;;;;;33.17;20.52;;;3.10;1.00;;;;;;5093948;28;20481;-90
2021/01/04 00:43:54;;;;;;;29.92;19.00;;;3.00;1.00;;;;;;5094209;28;20024;-91
2021/01/04 00:46:35;;;;;;;29.50;19.10;;;2.90;1.00;;;;;;5056204;28;20070;-90
2021/01/04 00:49:27;;;;;;;32.00;19.10;;;2.80;1.00;;;;;;5057744;28;20128;-90
2021/01/04 00:52:29;;;;;;;29.50;19.90;;;3.10;1.00;;;;;;5049800;28;20029;-91
2021/01/04 00:55:33;;;;;;;31.05;19.83;;;2.90;1.00;;;;;;5056051;28;20059;-90
2021/01/04 00:58:26;;;;;;;28.65;19.55;;;3.00;1.00;;;;;;5073726;28;20036;-90
2021/01/04 01:01:17;;;;;;;29.25;18.58;;;3.00;1.00;;;;;;5075647;28;20028;-91
2021/01/04 01:04:10;;;;;;;31.13;19.00;;;2.80;1.00;;;;;;5079192;28;20060;-91
2021/01/04 01:06:42;;;;;;;28.15;19.45;;;2.90;1.00;;;;;;5055613;28;20016;-91
2021/01/04 01:09:11;;;;;;;31.25;18.83;;;3.00;1.00;;;;;;5055581;28;20409;-90
2021/01/04 01:11:51;;;;;;;28.50;18.60;;;3.00;1.00;;;;;;5055644;28;20094;-91
2021/01/04 01:14:35;;;;;;;29.65;18.85;;;2.90;1.00;;;;;;5072783;28;20048;-90
2021/01/04 01:17:03;;;;;;;30.25;19.13;;;2.80;1.00;;;;;;5072392;28;20069;-91
2021/01/04 01:19:46;;;;;;;29.10;19.90;;;3.20;1.00;;;;;;5073705;28;20059;-90
2021/01/04 01:22:25;;;;;;;30.00;19.00;;;2.90;1.00;;;;;;5085237;28;20065;-90
2021/01/04 01:24:51;;;;;;;28.30;19.23;;;2.80;1.00;;;;;;5093116;28;20028;-90
2021/01/04 01:27:46;;;;;;;30.83;19.42;;;3.10;1.00;;;;;;5093110;28;20119;-90
2021/01/04 01:30:39;;;;;;;27.55;18.35;;;2.70;1.00;;;;;;5093336;28;20474;-91
2021/01/04 01:33:47;;;;;;;33.25;19.90;;;2.80;1.00;;;;;;5093680;28;20125;-90
2021/01/04 01:36:22;;;;;;;29.35;18.88;;;2.90;1.00;;;;;;5092795;28;20034;-90
2021/01/04 01:39:25;;;;;;;32.33;19.92;;;3.00;1.00;;;;;;5094048;28;20035;-91
2021/01/04 01:42:07;;;;;;;30.38;19.35;;;2.90;1.00;;;;;;5092884;28;20100;-90
2021/01/04 01:45:19;;;;;;;29.00;18.67;;;2.80;1.00;;;;;;5093062;28;20035;-90
2021/01/04 01:47:48;;;;;;;31.88;19.92;;;2.80;1.00;;;;;;5001264;28;20038;-91
2021/01/04 01:50:34;;;;;;;29.27;19.20;;;3.00;1.00;;;;;;4995142;28;20038;-91
2021/01/04 01:53:22;;;;;;;30.60;19.30;;;2.80;1.00;;;;;;5011811;28;20522;-90
2021/01/04 01:56:11;;;;;;;28.42;18.40;;;2.80;1.00;;;;;;5012088;28;20033;-91
2021/01/04 01:59:05;;;;;;;29.95;18.80;;;2.90;1.00;;;;;;5011823;28;20039;-90
2021/01/04 02:01:38;;;;;;;31.55;20.10;;;2.80;1.00;;;;;;4994496;28;20034;-90
2021/01/04 02:04:14;;;;;;;30.05;19.58;;;2.90;1.00;;;;;;4992387;28;20027;-90
2021/01/04 02:07:01;;;;;;;30.33;19.73;;;3.20;1.00;;;;;;4975358;28;20085;-90
2021/01/04 02:09:49;;;;;;;30.48;18.92;;;3.10;1.00;;;;;;4992593;28;20088;-90
2021/01/04 02:12:29;;;;;;;32.88;19.48;;;3.00;1.00;;;;;;4975869;28;20037;-90
2021/01/04 02:14:57;;;;;;;28.35;18.48;;;3.00;1.00;;;;;;4976036;28;20053;-90
2021/01/04 02:17:53;;;;;;;30.33;20.50;;;3.50;1.00;;;;;;4984298;28;20507;-90
2021/01/04 02:20:43;;;;;;;28.55;19.17;;;3.00;1.00;;;;;;4994809;28;20052;-90
2021/01/04 02:23:24;;;;;;;29.75;19.55;;;3.10;1.00;;;;;;4995643;28;20025;-90
2021/01/04 02:25:53;;;;;;;26.40;18.55;;;3.20;1.00;;;;;;5087665;28;20032;-91
2021/01/04 02:28:25;;;;;;;28.55;18.30;;;3.60;1.00;;;;;;5092243;28;20024;-90
2021/01/04 02:30:51;;;;;;;26.65;17.95;;;3.10;1.00;;;;;;5091494;28;20028;-91
2021/01/04 02:33:18;;;;;;;29.52;18.88;;;3.10;1.00;;;;;;5092407;28;20173;-90
2021/01/04 02:35:47;;;;;;;28.95;18.33;;;3.10;1.00;;;;;;5092136;28;20020;-91
2021/01/04 02:38:25;;;;;;;29.23;18.77;;;3.10;1.00;;;;;;5092038;28;20035;-91
2021/01/04 02:40:51;;;;;;;25.23;17.15;;;3.10;1.00;;;;;;5094814;28;20028;-91
2021/01/04 02:43:18;;;;;;;27.02;17.85;;;3.50;1.00;;;;;;5096310;28;20385;-91
2021/01/04 02:45:43;;;;;;;27.42;17.67;;;3.00;1.00;;;;;;5095433;28;20028;-91
2021/01/04 02:48:28;;;;;;;26.45;17.58;;;3.40;1.00;;;;;;5107857;28;20020;-91
2021/01/04 02:51:10;;;;;;;30.52;16.70;;;3.00;1.00;;;;;;5118143;28;20031;-90
2021/01/04 02:54:14;;;;;;;25.42;16.13;;;3.10;1.00;;;;;;5116488;28;20019;-91
2021/01/04 02:57:06;;;;;;;23.77;16.55;;;3.10;1.00;;;;;;5116634;28;20024;-90
2021/01/04 02:59:51;;;;;;;25.40;17.08;;;3.00;1.00;;;;;;5111897;28;20024;-90
2021/01/04 03:02:35;;;;;;;26.02;16.67;;;3.10;1.00;;;;;;5099009;28;20028;-89
2021/01/04 03:05:11;;;;;;;23.88;15.95;;;2.90;1.00;;;;;;5096391;28;20020;-90
2021/01/04 03:07:37;;;;;;;25.65;17.10;;;2.90;1.00;;;;;;5090752;28;20501;-90
2021/01/04 03:10:23;;;;;;;26.65;16.85;;;2.90;1.00;;;;;;5095908;28;20032;-90
2021/01/04 03:13:03;;;;;;;24.38;16.83;;;3.20;1.00;;;;;;5095716;28;20050;-90
2021/01/04 03:15:50;;;;;;;26.73;15.93;;;3.00;1.00;;;;;;5097871;28;20552;-90
2021/01/04 03:18:43;;;;;;;25.90;16.58;;;3.00;1.00;;;;;;5116145;28;20550;-90
2021/01/04 03:21:12;;;;;;;25.17;16.73;;;3.00;1.00;;;;;;5117264;28;20554;-90
2021/01/04 03:23:38;;;;;;;24.50;16.67;;;3.10;1.00;;;;;;5114025;28;20438;-91
2021/01/04 03:26:13;;;;;;;24.92;16.88;;;3.10;1.00;;;;;;5115928;28;20026;-91
2021/01/04 03:28:38;;;;;;;24.60;16.67;;;3.00;1.00;;;;;;5116849;28;20481;-90
2021/01/04 03:31:07;;;;;;;22.83;15.07;;;3.10;1.00;;;;;;5115694;28;20033;-91
2021/01/04 03:33:33;;;;;;;26.98;16.92;;;3.10;1.00;;;;;;5116776;28;20481;-91
2021/01/04 03:35:59;;;;;;;25.33;16.38;;;3.10;1.00;;;;;;5115747;28;20030;-91
2021/01/04 03:38:25;;;;;;;23.88;15.88;;;3.30;1.00;;;;;;5109148;28;20024;-91
2021/01/04 03:40:51;;;;;;;25.98;16.80;;;3.10;1.00;;;;;;5115502;28;20056;-90
2021/01/04 03:43:17;;;;;;;26.02;16.23;;;3.20;1.00;;;;;;5115521;28;20024;-91
2021/01/04 03:45:43;;;;;;;24.13;16.40;;;3.00;1.00;;;;;;5116045;28;20028;-90
2021/01/04 03:48:10;;;;;;;26.77;16.45;;;3.70;1.00;;;;;;5115412;28;20361;-91
2021/01/04 03:50:35;;;;;;;23.50;16.50;;;3.50;1.00;;;;;;5115511;28;20110;-91
2021/01/04 03:53:01;;;;;;;23.17;15.57;;;3.20;1.00;;;;;;5108163;28;20504;-90
2021/01/04 03:55:27;;;;;;;23.50;15.32;;;3.20;1.00;;;;;;5094796;28;20028;-91
2021/01/04 03:57:53;;;;;;;25.73;15.90;;;3.10;1.00;;;;;;5094976;28;20020;-90
2021/01/04 04:00:19;;;;;;;23.48;15.48;;;3.10;1.00;;;;;;5100040;28;20500;-90
2021/01/04 04:02:45;;;;;;;25.52;16.25;;;3.10;1.00;;;;;;5115212;28;20119;-91
2021/01/04 04:05:15;;;;;;;24.50;15.50;;;3.20;1.00;;;;;;5115329;28;20024;-90
2021/01/04 04:07:42;;;;;;;24.92;16.77;;;3.10;1.00;;;;;;5111344;28;20419;-90
2021/01/04 04:10:09;;;;;;;26.20;17.35;;;3.30;1.00;;;;;;5115048;28;20035;-90
2021/01/04 04:12:35;;;;;;;24.73;16.92;;;3.10;1.00;;;;;;5116489;28;20049;-90
2021/01/04 04:15:01;;;;;;;22.15;15.93;;;3.40;1.00;;;;;;5114882;28;20032;-90
2021/01/04 04:17:27;;;;;;;26.10;16.05;;;3.10;1.00;;;;;;5114702;28;20081;-90
2021/01/04 04:19:53;;;;;;;24.75;16.48;;;3.10;1.00;;;;;;5114984;27;20028;-90
2021/01/04 04:22:18;;;;;;;23.90;16.77;;;3.10;1.00;;;;;;5113361;28;20020;-91
2021/01/04 04:24:45;;;;;;;27.25;17.38;;;3.40;1.00;;;;;;5114866;28;20028;-91
2021/01/04 04:27:13;;;;;;;27.52;17.60;;;3.10;1.00;;;;;;5114916;28;20404;-90
2021/01/04 04:29:40;;;;;;;25.50;16.45;;;3.20;1.00;;;;;;5115776;28;20030;-91
2021/01/04 04:32:07;;;;;;;24.55;16.38;;;3.10;1.00;;;;;;5114514;28;20412;-90
2021/01/04 04:34:34;;;;;;;24.90;17.00;;;3.10;1.00;;;;;;5114769;28;20032;-91
2021/01/04 04:37:00;;;;;;;25.00;16.58;;;3.10;1.00;;;;;;5104571;28;20035;-90
2021/01/04 04:39:26;;;;;;;27.30;17.65;;;3.10;1.00;;;;;;5106324;28;20023;-90
2021/01/04 04:41:54;;;;;;;27.60;17.85;;;3.30;1.00;;;;;;5114563;28;20068;-90
2021/01/04 04:44:38;;;;;;;27.33;17.00;;;3.50;1.00;;;;;;5114202;27;20028;-90
2021/01/04 04:47:29;;;;;;;27.55;17.73;;;3.10;1.00;;;;;;5114300;28;20493;-91
2021/01/04 04:49:58;;;;;;;25.17;17.33;;;3.10;1.00;;;;;;5114191;28;20031;-90
2021/01/04 04:52:48;;;;;;;26.15;17.35;;;3.40;1.00;;;;;;5099703;28;20021;-90
2021/01/04 04:55:35;;;;;;;24.73;17.02;;;3.10;1.00;;;;;;5093964;28;20024;-90
2021/01/04 04:58:07;;;;;;;25.83;17.50;;;3.10;1.00;;;;;;5093838;28;20224;-91
2021/01/04 05:00:41;;;;;;;25.17;16.77;;;3.10;1.00;;;;;;5101368;28;20023;-90
2021/01/04 05:03:09;;;;;;;25.38;17.67;;;3.10;1.00;;;;;;5114554;28;20020;-90
2021/01/04 05:06:19;;;;;;;28.83;17.48;;;3.10;1.00;;;;;;5111814;28;20034;-90
2021/01/04 05:08:53;;;;;;;26.25;17.05;;;3.10;1.00;;;;;;5077729;28;20470;-90
2021/01/04 05:11:23;;;;;;;22.92;15.95;;;3.30;1.00;;;;;;5094493;28;20424;-90
2021/01/04 05:13:52;;;;;;;29.50;18.40;;;3.10;1.00;;;;;;5093241;28;20501;-90
2021/01/04 05:16:45;;;;;;;27.10;18.38;;;3.10;1.00;;;;;;5094214;28;20032;-91
2021/01/04 05:19:49;;;;;;;30.10;18.13;;;3.10;1.00;;;;;;5093363;28;20024;-90
2021/01/04 05:22:42;;;;;;;27.45;17.38;;;3.00;1.00;;;;;;5075812;28;20078;-90
2021/01/04 05:25:38;;;;;;;25.52;17.40;;;3.10;1.00;;;;;;5055439;28;20030;-90
2021/01/04 05:28:35;;;;;;;28.67;17.90;;;3.10;1.00;;;;;;5055179;28;20021;-90
2021/01/04 05:31:38;;;;;;;32.03;22.35;;;3.10;1.00;;;;;;5055299;28;20032;-90
2021/01/04 05:34:31;;;;;;;31.33;21.88;;;3.10;1.00;;;;;;5059005;28;20043;-90
2021/01/04 05:37:44;;;;;;;28.60;18.90;;;3.30;1.00;;;;;;5075847;28;20454;-91
2021/01/04 05:40:33;;;;;;;29.60;19.95;;;3.20;1.00;;;;;;4976213;28;20535;-90
2021/01/04 05:43:07;;;;;;;28.73;18.75;;;3.30;1.00;;;;;;4973031;28;20373;-90
2021/01/04 05:45:54;;;;;;;29.23;18.98;;;3.10;1.00;;;;;;4956960;28;20049;-90
2021/01/04 05:48:44;;;;;;;27.05;17.90;;;3.10;1.00;;;;;;4973291;28;20031;-90
2021/01/04 05:51:25;;;;;;;29.67;19.65;;;3.20;1.00;;;;;;4959765;28;20038;-90
2021/01/04 05:53:51;;;;;;;66.47;30.00;;;3.10;1.00;;;;;;4992595;28;20034;-90
2021/01/04 05:56:25;;;;;;;78.38;35.53;;;3.60;1.00;;;;;;4992412;28;20035;-90
2021/01/04 05:58:52;;;;;;;205.77;78.28;;;3.20;1.00;;;;;;4984100;28;20096;-90
2021/01/04 06:01:24;;;;;;;96.13;47.28;;;3.40;1.00;;;;;;5024720;28;20580;-90
2021/01/04 06:04:02;;;;;;;49.83;29.60;;;3.20;1.00;;;;;;5031492;28;20041;-90
2021/01/04 06:06:46;;;;;;;30.60;20.63;;;3.20;1.00;;;;;;5019740;28;20057;-90
2021/01/04 06:09:16;;;;;;;30.77;19.35;;;3.40;1.00;;;;;;5011562;28;20050;-90
2021/01/04 06:12:06;;;;;;;35.33;23.15;;;3.60;1.00;;;;;;4995084;28;20141;-90
2021/01/04 06:14:34;;;;;;;31.50;19.83;;;3.20;1.00;;;;;;4994484;28;20026;-91
2021/01/04 06:17:22;;;;;;;31.80;20.67;;;3.60;1.00;;;;;;5059983;28;20033;-90
2021/01/04 06:19:52;;;;;;;30.85;20.55;;;3.10;1.00;;;;;;5093426;28;20500;-90
2021/01/04 06:22:26;;;;;;;33.75;23.27;;;3.10;1.00;;;;;;5103420;28;20028;-90
2021/01/04 06:24:59;;;;;;;31.52;20.40;;;3.30;1.00;;;;;;5112707;28;20115;-90
2021/01/04 06:27:31;;;;;;;28.50;18.55;;;3.40;1.00;;;;;;5112267;28;20023;-90
2021/01/04 06:30:00;;;;;;;30.55;19.67;;;3.30;1.00;;;;;;5113735;28;20559;-90
2021/01/04 06:32:31;;;;;;;29.67;19.27;;;3.10;1.00;;;;;;5113620;28;20024;-90
2021/01/04 06:35:03;;;;;;;29.85;19.33;;;3.20;1.00;;;;;;5112114;28;20049;-90
2021/01/04 06:37:31;;;;;;;33.25;20.98;;;3.30;1.00;;;;;;5093780;28;20028;-90
2021/01/04 06:40:05;;;;;;;30.63;19.98;;;3.40;1.00;;;;;;5091936;28;20535;-90
2021/01/04 06:42:40;;;;;;;34.30;20.73;;;3.30;1.00;;;;;;5092267;28;20032;-90
2021/01/04 06:45:19;;;;;;;29.80;20.13;;;3.60;1.00;;;;;;5093391;28;20221;-90
2021/01/04 06:47:51;;;;;;;32.25;20.45;;;3.60;1.00;;;;;;5092273;28;20059;-91
2021/01/04 06:50:43;;;;;;;31.20;20.17;;;3.20;1.00;;;;;;5094520;28;20020;-91
2021/01/04 06:53:14;;;;;;;32.05;20.10;;;3.70;1.00;;;;;;5112138;28;20034;-90
2021/01/04 06:56:26;;;;;;;31.33;19.30;;;3.20;1.00;;;;;;5112194;28;20028;-90
2021/01/04 06:59:18;;;;;;;29.95;19.73;;;3.00;1.00;;;;;;5109955;28;20031;-90
2021/01/04 07:02:12;;;;;;;32.05;19.85;;;3.10;1.00;;;;;;5112001;28;20031;-90
2021/01/04 07:04:44;;;;;;;30.80;19.67;;;3.10;1.00;;;;;;5111476;28;20055;-90
2021/01/04 07:07:34;;;;;;;32.78;20.95;;;3.10;1.00;;;;;;5111914;28;20071;-91
2021/01/04 07:10:40;;;;;;;32.00;20.42;;;3.20;1.00;;;;;;5111724;28;20043;-90
2021/01/04 07:13:26;;;;;;;34.33;20.77;;;3.10;1.00;;;;;;5092372;28;20032;-90
2021/01/04 07:16:10;;;;;;;36.40;22.85;;;2.90;1.00;;;;;;5113155;28;20111;-91
2021/01/04 07:18:45;;;;;;;32.95;21.35;;;3.20;1.00;;;;;;5112036;28;20498;-90
2021/01/04 07:21:32;;;;;;;31.88;20.17;;;3.10;1.00;;;;;;5094840;28;20138;-91
2021/01/04 07:24:18;;;;;;;33.08;20.45;;;3.00;1.00;;;;;;5091217;28;20511;-91
2021/01/04 07:27:29;;;;;;;33.45;20.50;;;3.10;1.00;;;;;;5110065;28;20030;-92
2021/01/04 07:30:10;;;;;;;31.25;20.52;;;3.10;1.00;;;;;;5109798;28;20036;-91
2021/01/04 07:33:02;;;;;;;32.58;21.30;;;3.20;1.00;;;;;;5115730;28;20024;-91
2021/01/04 07:35:33;;;;;;;34.55;21.75;;;3.10;1.00;;;;;;5097905;28;20036;-95
2021/01/04 07:38:11;;;;;;;34.15;21.50;;;3.00;1.00;;;;;;5095247;28;20020;-92
2021/01/04 07:40:59;;;;;;;33.72;21.25;;;2.90;1.00;;;;;;5094766;28;20520;-90
2021/01/04 07:44:02;;;;;;;35.38;21.65;;;3.00;1.00;;;;;;5094996;28;20063;-92
2021/01/04 07:46:30;;;;;;;34.20;20.90;;;3.00;1.00;;;;;;5094729;28;20016;-89
2021/01/04 07:49:26;;;;;;;38.33;22.15;;;3.00;1.00;;;;;;5094167;28;20016;-90
2021/01/04 07:52:42;;;;;;;34.47;21.27;;;3.10;1.00;;;;;;5101636;28;20081;-89
2021/01/04 07:55:29;;;;;;;31.92;21.33;;;3.00;1.00;;;;;;5095220;28;20405;-89
2021/01/04 07:57:54;;;;;;;32.47;20.75;;;3.10;1.00;;;;;;5094786;28;20028;-94
2021/01/04 08:00:38;;;;;;;34.10;21.67;;;3.10;1.00;;;;;;5100202;28;20077;-93
2021/01/04 08:03:30;;;;;;;30.75;20.83;;;2.90;1.00;;;;;;5116471;28;20083;-90
2021/01/04 08:06:18;;;;;;;32.95;20.17;;;3.10;1.00;;;;;;5057872;28;20036;-90
2021/01/04 08:09:16;;;;;;;34.67;21.15;;;3.00;1.00;;;;;;5044233;28;20055;-89
2021/01/04 08:12:25;;;;;;;35.45;22.05;;;3.10;1.00;;;;;;5073642;28;20082;-90
2021/01/04 08:15:21;;;;;;;33.17;21.58;;;3.20;1.00;;;;;;5073534;28;20032;-90
2021/01/04 08:18:19;;;;;;;33.38;21.55;;;3.30;1.00;;;;;;5073343;28;20074;-90
2021/01/04 08:21:07;;;;;;;34.97;22.17;;;3.20;1.00;;;;;;5088674;28;20078;-91
2021/01/04 08:24:00;;;;;;;32.58;21.20;;;3.20;1.00;;;;;;5070523;28;20040;-90
2021/01/04 08:27:02;;;;;;;36.05;22.05;;;3.30;1.00;;;;;;5072258;28;20071;-90
2021/01/04 08:29:52;;;;;;;35.58;22.52;;;3.20;1.00;;;;;;5070509;28;20040;-90
2021/01/04 08:32:29;;;;;;;32.33;21.40;;;3.10;1.00;;;;;;5076620;28;20554;-91
2021/01/04 08:34:55;;;;;;;35.72;21.98;;;3.20;1.00;;;;;;5092255;28;20154;-89
2021/01/04 08:37:42;;;;;;;32.40;22.30;;;3.00;1.00;;;;;;5075705;28;20028;-90
2021/01/04 08:40:35;;;;;;;33.83;22.05;;;3.70;1.00;;;;;;5073775;28;20461;-89
2021/01/04 08:43:07;;;;;;;34.88;22.65;;;3.20;1.00;;;;;;5106533;28;20401;-89
2021/01/04 08:45:45;;;;;;;33.60;22.30;;;3.60;1.00;;;;;;5113979;28;20053;-89
2021/01/04 08:48:21;;;;;;;37.97;22.95;;;3.30;1.00;;;;;;5113368;28;20037;-88
2021/01/04 08:51:25;;;;;;;36.17;22.67;;;3.30;1.00;;;;;;5094363;28;20024;-88
2021/01/04 08:53:53;;;;;;;34.50;22.60;;;3.60;1.00;;;;;;5094431;28;20028;-88
2021/01/04 08:56:26;;;;;;;30.70;21.23;;;3.60;1.00;;;;;;5093433;28;20024;-89
2021/01/04 08:58:52;;;;;;;31.50;20.95;;;3.30;1.00;;;;;;5093270;28;20031;-89
2021/01/04 09:01:25;;;;;;;32.50;21.35;;;3.50;1.00;;;;;;5106747;28;20483;-89
2021/01/04 09:04:02;;;;;;;32.70;22.10;;;3.20;1.00;;;;;;5103235;28;20119;-89
2021/01/04 09:06:33;;;;;;;34.40;22.55;;;3.20;1.00;;;;;;5092378;28;20107;-87
2021/01/04 09:09:11;;;;;;;39.58;23.52;;;3.70;1.00;;;;;;5093922;28;20048;-89
2021/01/04 09:11:49;;;;;;;37.30;23.75;;;3.90;1.00;;;;;;5093166;28;20065;-87
2021/01/04 09:14:23;;;;;;;38.70;23.55;;;3.50;1.00;;;;;;5111513;28;20508;-88
2021/01/04 09:16:49;;;;;;;34.03;22.45;;;3.50;1.00;;;;;;5113595;28;20028;-89
2021/01/04 09:19:23;;;;;;;33.78;22.88;;;3.90;1.00;;;;;;5112134;28;20110;-88
2021/01/04 09:21:49;;;;;;;33.33;21.67;;;3.40;1.00;;;;;;5112876;28;20035;-89
2021/01/04 09:24:24;;;;;;;32.30;21.45;;;3.70;1.00;;;;;;5113489;28;20028;-89
2021/01/04 09:27:20;;;;;;;32.72;22.00;;;3.40;1.00;;;;;;5113384;28;20110;-90
2021/01/04 09:29:50;;;;;;;33.53;21.63;;;3.40;1.00;;;;;;5113240;28;20022;-88
2021/01/04 09:32:27;;;;;;;32.40;21.00;;;3.40;1.00;;;;;;5113095;28;20024;-88
2021/01/04 09:34:52;;;;;;;34.58;22.02;;;3.60;1.00;;;;;;5095291;28;20077;-89
2021/01/04 09:37:25;;;;;;;34.63;21.73;;;3.70;1.00;;;;;;5092449;28;20028;-88
2021/01/04 09:40:03;;;;;;;33.08;22.63;;;3.70;1.00;;;;;;5092411;28;20489;-88
2021/01/04 09:42:30;;;;;;;35.08;22.63;;;3.70;1.00;;;;;;5092332;28;20028;-88
2021/01/04 09:45:08;;;;;;;32.70;22.42;;;3.60;1.00;;;;;;5092230;28;20017;-88
2021/01/04 09:47:45;;;;;;;43.97;27.27;;;3.60;1.00;;;;;;5093674;28;20016;-88
2021/01/04 09:50:36;;;;;;;36.40;23.05;;;3.60;1.00;;;;;;5092036;28;20085;-88
2021/01/04 09:53:20;;;;;;;40.05;26.25;;;3.80;1.00;;;;;;5092114;28;20032;-89
2021/01/04 09:55:47;;;;;;;37.80;25.45;;;3.90;1.00;;;;;;5091556;28;20035;-91
2021/01/04 09:58:19;;;;;;;42.78;25.73;;;3.70;1.00;;;;;;5096066;28;20061;-88
2021/01/04 10:00:45;;;;;;;47.30;33.17;;;3.70;1.00;;;;;;5101117;28;20035;-89
2021/01/04 10:03:13;;;;;;;40.00;25.80;;;3.40;1.00;;;;;;5107726;28;20020;-89
2021/01/04 10:05:44;;;;;;;43.20;28.67;;;4.00;1.00;;;;;;5092272;28;20028;-88
2021/01/04 10:08:14;;;;;;;34.65;21.85;;;3.80;1.00;;;;;;5092063;28;20046;-88
2021/01/04 10:10:50;;;;;;;39.08;26.55;;;3.80;1.00;;;;;;5091988;28;20154;-89
2021/01/04 10:13:15;;;;;;;32.92;21.65;;;3.80;1.00;;;;;;5093599;28;20467;-87
2021/01/04 10:15:41;;;;;;;35.28;22.33;;;3.90;1.00;;;;;;5093011;28;20161;-88
2021/01/04 10:18:15;;;;;;;32.20;21.20;;;3.60;1.00;;;;;;5091029;28;20020;-89
2021/01/04 10:20:51;;;;;;;84.13;46.40;;;3.60;1.00;;;;;;5105412;28;20027;-88
2021/01/04 10:23:29;;;;;;;33.38;21.63;;;3.80;1.00;;;;;;5112413;28;20020;-89
2021/01/04 10:25:58;;;;;;;33.70;22.98;;;3.80;1.00;;;;;;5112438;28;20030;-88
2021/01/04 10:28:32;;;;;;;30.92;21.05;;;3.90;1.00;;;;;;5113535;28;20019;-88
2021/01/04 10:31:04;;;;;;;117.00;53.72;;;3.90;1.00;;;;;;5112173;28;20045;-89
2021/01/04 10:33:36;;;;;;;33.60;21.67;;;4.40;1.00;;;;;;5109833;28;20035;-89
2021/01/04 10:36:18;;;;;;;38.50;26.00;;;4.00;1.00;;;;;;5112231;28;20255;-92
2021/01/04 10:38:48;;;;;;;32.50;20.75;;;4.10;1.00;;;;;;5112278;28;20028;-90
2021/01/04 10:41:17;;;;;;;31.33;21.50;;;4.40;1.00;;;;;;5097899;28;20119;-93
2021/01/04 10:43:45;;;;;;;275.33;229.48;;;4.50;1.00;;;;;;5091957;28;20500;-89
2021/01/04 10:46:15;;;;;;;31.52;21.52;;;4.30;1.00;;;;;;5100183;28;20396;-88
2021/01/04 10:48:54;;;;;;;30.58;20.17;;;4.30;1.00;;;;;;5110967;28;20031;-88
2021/01/04 10:51:22;;;;;;;32.15;21.65;;;4.60;1.00;;;;;;5110036;28;20081;-88
2021/01/04 10:53:48;;;;;;;33.20;23.40;;;4.40;1.00;;;;;;5112308;28;20132;-88
2021/01/04 10:56:16;;;;;;;27.10;19.08;;;4.60;1.00;;;;;;5111623;28;20116;-88
2021/01/04 10:59:09;;;;;;;27.95;19.20;;;5.00;1.00;;;;;;5111554;28;20049;-88
2021/01/04 11:01:40;;;;;;;26.50;18.10;;;4.60;1.00;;;;;;5097061;28;20028;-88
2021/01/04 11:04:09;;;;;;;32.35;22.67;;;4.70;1.00;;;;;;5109449;28;20085;-89
2021/01/04 11:06:38;;;;;;;29.25;20.60;;;4.60;1.00;;;;;;5115340;28;20485;-89
2021/01/04 11:09:18;;;;;;;29.33;19.42;;;4.70;1.00;;;;;;5116640;28;20043;-89
2021/01/04 11:12:07;;;;;;;29.73;20.13;;;4.70;1.00;;;;;;5103000;28;20038;-89
2021/01/04 11:14:33;;;;;;;27.92;18.67;;;4.70;1.00;;;;;;5115722;28;20050;-89
2021/01/04 11:17:22;;;;;;;28.10;19.65;;;4.90;1.00;;;;;;5115385;28;20114;-89
2021/01/04 11:19:48;;;;;;;30.48;21.90;;;4.70;1.00;;;;;;5098011;28;20039;-89
2021/01/04 11:22:14;;;;;;;30.02;19.58;;;4.70;1.00;;;;;;5094976;28;20028;-89
2021/01/04 11:24:41;;;;;;;28.70;19.20;;;4.60;1.00;;;;;;5098013;28;20035;-88
2021/01/04 11:27:07;;;;;;;30.02;22.65;;;4.60;1.00;;;;;;5095797;28;20077;-89
2021/01/04 11:29:33;;;;;;;32.22;23.48;;;4.60;1.00;;;;;;5096105;28;20024;-89
2021/01/04 11:31:59;;;;;;;32.00;22.02;;;4.60;1.00;;;;;;5095264;28;20035;-89
2021/01/04 11:34:25;;;;;;;29.13;20.17;;;4.50;1.00;;;;;;5099740;28;20443;-89
2021/01/04 11:36:50;;;;;;;28.42;19.83;;;4.40;1.00;;;;;;5095590;28;20542;-88
2021/01/04 11:39:17;;;;;;;29.73;20.00;;;4.70;1.00;;;;;;5095418;28;20056;-88
2021/01/04 11:41:44;;;;;;;29.00;19.88;;;4.40;1.00;;;;;;5095243;28;20028;-88
2021/01/04 11:44:09;;;;;;;26.70;19.20;;;4.40;1.00;;;;;;5095020;28;20024;-93
2021/01/04 11:46:36;;;;;;;30.48;18.90;;;4.50;1.00;;;;;;5095284;28;20085;-90
2021/01/04 11:49:02;;;;;;;30.15;20.67;;;4.40;1.00;;;;;;5095275;28;20028;-88
2021/01/04 11:51:27;;;;;;;24.92;17.55;;;4.50;1.00;;;;;;5094936;28;20081;-89
2021/01/04 11:57:15;;;;;;;24.98;18.35;;;4.30;1.00;;;;;;5096373;28;20082;-88
2021/01/04 11:59:41;;;;;;;24.33;17.73;;;4.30;1.00;;;;;;5094728;28;20486;-89
2021/01/04 12:02:06;;;;;;;26.02;17.83;;;4.30;1.00;;;;;;5112787;28;20039;-89
2021/01/04 12:04:33;;;;;;;23.70;16.48;;;4.20;1.00;;;;;;5111396;28;20023;-92
2021/01/04 12:06:58;;;;;;;24.77;17.75;;;4.20;1.00;;;;;;5115091;28;20020;-89
2021/01/04 12:09:24;;;;;;;23.33;16.73;;;4.10;1.00;;;;;;5115580;28;20054;-90
2021/01/04 12:11:50;;;;;;;24.50;17.85;;;4.10;1.00;;;;;;5114683;28;20034;-90
2021/01/04 12:14:17;;;;;;;24.52;17.52;;;4.10;1.00;;;;;;5114238;28;20027;-90
2021/01/04 12:16:43;;;;;;;25.63;17.52;;;4.10;1.00;;;;;;5114130;28;20032;-91
2021/01/04 12:19:10;;;;;;;27.10;18.42;;;4.00;1.00;;;;;;5108596;28;20024;-89
2021/01/04 12:21:35;;;;;;;23.90;16.45;;;4.00;1.00;;;;;;5094697;28;20504;-91
2021/01/04 12:24:01;;;;;;;21.52;16.30;;;3.90;1.00;;;;;;5094112;28;20024;-89
2021/01/04 12:26:28;;;;;;;24.55;17.15;;;4.30;1.00;;;;;;5099294;28;20056;-89
2021/01/04 12:28:55;;;;;;;26.20;17.67;;;4.50;1.00;;;;;;5114865;28;20018;-91
2021/01/04 12:31:21;;;;;;;27.55;17.95;;;3.90;1.00;;;;;;5116411;28;20506;-90
2021/01/04 12:33:46;;;;;;;29.05;18.60;;;4.20;1.00;;;;;;5098084;28;20133;-91
2021/01/04 12:36:21;;;;;;;25.35;18.23;;;4.10;1.00;;;;;;5095243;28;20043;-91
2021/01/04 12:38:47;;;;;;;26.42;17.67;;;4.00;1.00;;;;;;5094246;28;20028;-91
2021/01/04 12:41:14;;;;;;;24.95;17.67;;;4.10;1.00;;;;;;5094698;28;20036;-90
2021/01/04 12:43:54;;;;;;;24.23;17.17;;;3.70;1.00;;;;;;5094236;28;20507;-89
2021/01/04 12:46:20;;;;;;;25.48;17.95;;;4.00;1.00;;;;;;5095760;28;20024;-90
2021/01/04 12:48:45;;;;;;;26.45;17.90;;;3.80;1.00;;;;;;5098313;28;20020;-90
2021/01/04 12:51:14;;;;;;;24.92;16.52;;;3.80;1.00;;;;;;5094345;28;20036;-89
2021/01/04 12:53:40;;;;;;;24.85;16.95;;;3.70;1.00;;;;;;5094580;28;20020;-89
2021/01/04 12:56:06;;;;;;;24.60;17.38;;;4.10;1.00;;;;;;5094665;28;20481;-95
2021/01/04 12:58:32;;;;;;;25.80;17.27;;;3.80;1.00;;;;;;5093915;28;20035;-91
2021/01/04 13:00:57;;;;;;;23.50;15.80;;;3.90;1.00;;;;;;5094309;28;20029;-89
2021/01/04 13:03:23;;;;;;;25.45;16.90;;;3.80;1.00;;;;;;5109342;28;20023;-89
2021/01/04 13:05:49;;;;;;;23.65;16.65;;;4.00;1.00;;;;;;5114386;28;20036;-89
2021/01/04 13:08:14;;;;;;;25.95;17.85;;;3.60;1.00;;;;;;5114425;28;20508;-89
2021/01/04 13:10:40;;;;;;;22.05;15.85;;;3.60;1.00;;;;;;5114345;28;20110;-89
2021/01/04 13:13:06;;;;;;;25.85;18.38;;;3.80;1.00;;;;;;5113988;28;20024;-90
2021/01/04 13:15:31;;;;;;;26.67;17.65;;;3.70;1.00;;;;;;5114340;28;20032;-89
2021/01/04 13:17:57;;;;;;;60.75;39.63;;;3.80;1.00;;;;;;5110567;28;20028;-90
2021/01/04 13:20:23;;;;;;;28.10;19.38;;;3.90;1.00;;;;;;5114109;28;20027;-89
2021/01/04 13:22:49;;;;;;;23.88;16.17;;;3.40;1.00;;;;;;5114151;28;20028;-90
2021/01/04 13:25:15;;;;;;;67.68;30.13;;;3.60;1.00;;;;;;5114816;28;20431;-90
2021/01/04 13:27:41;;;;;;;26.85;17.15;;;3.30;1.00;;;;;;5113587;28;20019;-90
2021/01/04 13:30:07;;;;;;;245.45;84.30;;;3.30;1.00;;;;;;5114188;28;20026;-88
2021/01/04 13:32:33;;;;;;;248.10;88.25;;;3.30;1.00;;;;;;5098984;28;20024;-89
2021/01/04 13:34:59;;;;;;;206.07;72.22;;;3.80;1.00;;;;;;5093644;28;20149;-90
2021/01/04 13:37:24;;;;;;;549.25;200.18;;;4.00;1.00;;;;;;5093592;28;20115;-89